Aviation Digital Data Service (ADDS)

Output produced by METARs form (1341 UTC 24 August 2019)
found at http://www.aviationweather.gov/metar/data/
 
Forecast for: FALA (LANSERIA (CIV/MI, ZA)
Text: TAF FALA 241000Z 2412/2512 36006KT CAVOK TX26/2512Z TN08/2504Z
Forecast period: 1200 to 1600 UTC 24 August 2019
Forecast type: FROM: standard forecast or significant change
Winds: from the N (360 degrees) at 7 MPH (6 knots; 3.1 m/s)
Visibility: 6 or more miles 10+ km)
Ceiling: unknown
Clouds: missing
Weather: no significant weather forecast for this period
Text: BECMG 2416/2418 VRB03KT
Forecast period: 1600 UTC 24 August 2019 to 0800 UTC 25 August 2019
Forecast type: BECOMING: Conditions expected to become as follows by 1800 UTC 24 August 2019
Winds: variable direction winds at 3 MPH (3 knots; 1.5 m/s)
Visibility: 6 or more miles 10+ km)
Ceiling: unknown
Clouds: missing
Weather: no significant weather forecast for this period
Text: BECMG 2508/2510 28007KT
Forecast period: 0800 to 1200 UTC 25 August 2019
Forecast type: BECOMING: Conditions expected to become as follows by 1000 UTC 25 August 2019
Winds: from the W (280 degrees) at 8 MPH (7 knots; 3.6 m/s)
Visibility: 6 or more miles 10+ km)
Ceiling: unknown
Clouds: missing
Weather: no significant weather forecast for this period